Time;durP1;ratioP1;P1;durP2;ratioP2;P2;SDS_P1;SDS_P2;PMS_P1;PMS_P2;Temp;Humidity;BMP_temperature;BMP_pressure;BME280_temperature;BME280_humidity;BME280_pressure;Samples;Min_cycle;Max_cycle;Signal;HPM_P1;HPM_P2
2019/09/11 00:00:39;;;;;;;11.15;9.5;;;;;;;9.24;87.49414;95565.11;;;;
2019/09/11 00:01:44;;;;;;;11.15;9.5;;;;;;;9.24;87.49414;95565.11;;;;
2019/09/11 00:02:45;;;;;;;11.15;9.5;;;;;;;9.24;87.49414;95565.11;;;;
2019/09/11 00:03:47;;;;;;;11.15;9.5;;;;;;;9.24;87.49414;95565.11;;;;
2019/09/11 00:04:48;;;;;;;11.15;9.5;;;;;;;9.24;87.49414;95565.11;;;;
2019/09/11 00:05:49;;;;;;;11.15;9.5;;;;;;;9.24;87.49414;95565.11;;;;
2019/09/11 00:06:50;;;;;;;10.4;9.3;;;;;;;9.25;87.89063;95575.23;;;;
2019/09/11 00:07:52;;;;;;;10.4;9.3;;;;;;;9.25;87.89063;95575.23;;;;
2019/09/11 00:08:53;;;;;;;10.4;9.3;;;;;;;9.25;87.89063;95575.23;;;;
2019/09/11 00:09:54;;;;;;;10.4;9.3;;;;;;;9.25;87.89063;95575.23;;;;
2019/09/11 00:10:55;;;;;;;10.4;9.3;;;;;;;9.25;87.89063;95575.23;;;;
2019/09/11 00:11:56;;;;;;;10.4;9.3;;;;;;;9.25;87.89063;95575.23;;;;
2019/09/11 00:12:57;;;;;;;10.4;9.3;;;;;;;9.25;87.89063;95575.23;;;;
2019/09/11 00:13:59;;;;;;;10.4;9.3;;;;;;;9.25;87.89063;95575.23;;;;
2019/09/11 00:15:00;;;;;;;10.4;9.3;;;;;;;9.25;87.89063;95575.23;;;;
2019/09/11 00:16:01;;;;;;;10.4;9.3;;;;;;;9.25;87.89063;95575.23;;;;
2019/09/11 00:17:03;;;;;;;10.65;7.7;;;;;;;9.17;88.34082;95582.69;;;;
2019/09/11 00:18:04;;;;;;;10.65;7.7;;;;;;;9.17;88.34082;95582.69;;;;
2019/09/11 00:19:06;;;;;;;10.65;7.7;;;;;;;9.17;88.34082;95582.69;;;;
2019/09/11 00:20:10;;;;;;;10.65;7.7;;;;;;;9.17;88.34082;95582.69;;;;
2019/09/11 00:21:11;;;;;;;10.65;7.7;;;;;;;9.17;88.34082;95582.69;;;;
2019/09/11 00:22:13;;;;;;;10.65;7.7;;;;;;;9.17;88.34082;95582.69;;;;
2019/09/11 00:23:14;;;;;;;10.65;7.7;;;;;;;9.17;88.34082;95582.69;;;;
2019/09/11 00:24:15;;;;;;;10.65;7.7;;;;;;;9.17;88.34082;95582.69;;;;
2019/09/11 00:25:16;;;;;;;10.65;7.7;;;;;;;9.17;88.34082;95582.69;;;;
2019/09/11 00:26:20;;;;;;;10.65;7.7;;;;;;;9.17;88.34082;95582.69;;;;
2019/09/11 00:27:21;;;;;;;8.05;7.25;;;;;;;9.2;88.51855;95586.69;;;;
2019/09/11 00:28:22;;;;;;;8.05;7.25;;;;;;;9.2;88.51855;95586.69;;;;
2019/09/11 00:29:24;;;;;;;8.05;7.25;;;;;;;9.2;88.51855;95586.69;;;;
2019/09/11 00:30:25;;;;;;;8.05;7.25;;;;;;;9.2;88.51855;95586.69;;;;
2019/09/11 00:31:27;;;;;;;8.05;7.25;;;;;;;9.2;88.51855;95586.69;;;;
2019/09/11 00:32:28;;;;;;;8.05;7.25;;;;;;;9.2;88.51855;95586.69;;;;
2019/09/11 00:33:29;;;;;;;8.05;7.25;;;;;;;9.2;88.51855;95586.69;;;;
2019/09/11 00:34:31;;;;;;;8.05;7.25;;;;;;;9.2;88.51855;95586.69;;;;
2019/09/11 00:35:32;;;;;;;8.05;7.25;;;;;;;9.2;88.51855;95586.69;;;;
2019/09/11 00:36:33;;;;;;;8.05;7.25;;;;;;;9.2;88.51855;95586.69;;;;
2019/09/11 00:37:35;;;;;;;8.05;7.25;;;;;;;9.2;88.51855;95586.69;;;;
2019/09/11 00:38:36;;;;;;;10.35;8.200001;;;;;;;9.18;88.66211;95583.91;;;;
2019/09/11 00:39:37;;;;;;;10.35;8.200001;;;;;;;9.18;88.66211;95583.91;;;;
2019/09/11 00:40:38;;;;;;;10.35;8.200001;;;;;;;9.18;88.66211;95583.91;;;;
2019/09/11 00:41:40;;;;;;;10.35;8.200001;;;;;;;9.18;88.66211;95583.91;;;;
2019/09/11 00:42:41;;;;;;;10.35;8.200001;;;;;;;9.18;88.66211;95583.91;;;;
2019/09/11 00:43:42;;;;;;;10.35;8.200001;;;;;;;9.18;88.66211;95583.91;;;;
2019/09/11 00:44:43;;;;;;;10.35;8.200001;;;;;;;9.18;88.66211;95583.91;;;;
2019/09/11 00:45:44;;;;;;;10.35;8.200001;;;;;;;9.18;88.66211;95583.91;;;;
2019/09/11 00:46:46;;;;;;;10.35;8.200001;;;;;;;9.18;88.66211;95583.91;;;;
2019/09/11 00:47:47;;;;;;;10.35;8.200001;;;;;;;9.18;88.66211;95583.91;;;;
2019/09/11 00:48:48;;;;;;;12.1;10.15;;;;;;;9.32;88.82813;95586.78;;;;
2019/09/11 00:49:50;;;;;;;12.1;10.15;;;;;;;9.32;88.82813;95586.78;;;;
2019/09/11 00:50:51;;;;;;;12.1;10.15;;;;;;;9.32;88.82813;95586.78;;;;
2019/09/11 00:51:52;;;;;;;12.1;10.15;;;;;;;9.32;88.82813;95586.78;;;;
2019/09/11 00:52:53;;;;;;;12.1;10.15;;;;;;;9.32;88.82813;95586.78;;;;
2019/09/11 00:53:54;;;;;;;12.1;10.15;;;;;;;9.32;88.82813;95586.78;;;;
2019/09/11 00:54:55;;;;;;;12.1;10.15;;;;;;;9.32;88.82813;95586.78;;;;
2019/09/11 00:55:56;;;;;;;12.1;10.15;;;;;;;9.32;88.82813;95586.78;;;;
2019/09/11 00:56:57;;;;;;;12.1;10.15;;;;;;;9.32;88.82813;95586.78;;;;
2019/09/11 00:57:58;;;;;;;12.1;10.15;;;;;;;9.32;88.82813;95586.78;;;;
2019/09/11 00:59:00;;;;;;;11.75;10.55;;;;;;;9.38;88.90625;95585.39;;;;
2019/09/11 01:00:01;;;;;;;11.75;10.55;;;;;;;9.38;88.90625;95585.39;;;;
2019/09/11 01:01:05;;;;;;;11.75;10.55;;;;;;;9.38;88.90625;95585.39;;;;
2019/09/11 01:02:08;;;;;;;11.75;10.55;;;;;;;9.38;88.90625;95585.39;;;;
2019/09/11 01:03:09;;;;;;;11.75;10.55;;;;;;;9.38;88.90625;95585.39;;;;
2019/09/11 01:04:11;;;;;;;11.75;10.55;;;;;;;9.38;88.90625;95585.39;;;;
2019/09/11 01:05:12;;;;;;;11.75;10.55;;;;;;;9.38;88.90625;95585.39;;;;
2019/09/11 01:06:14;;;;;;;11.75;10.55;;;;;;;9.38;88.90625;95585.39;;;;
2019/09/11 01:07:15;;;;;;;11.75;10.55;;;;;;;9.38;88.90625;95585.39;;;;
2019/09/11 01:08:17;;;;;;;11.75;10.55;;;;;;;9.38;88.90625;95585.39;;;;
2019/09/11 01:09:18;;;;;;;11.75;10.55;;;;;;;9.38;88.90625;95585.39;;;;
2019/09/11 01:10:19;;;;;;;10.25;8.75;;;;;;;9.53;89.33789;95601.74;;;;
2019/09/11 01:11:22;;;;;;;10.25;8.75;;;;;;;9.53;89.33789;95601.74;;;;
2019/09/11 01:12:23;;;;;;;10.25;8.75;;;;;;;9.53;89.33789;95601.74;;;;
2019/09/11 01:13:24;;;;;;;10.25;8.75;;;;;;;9.53;89.33789;95601.74;;;;
2019/09/11 01:14:26;;;;;;;10.25;8.75;;;;;;;9.53;89.33789;95601.74;;;;
2019/09/11 01:15:27;;;;;;;10.25;8.75;;;;;;;9.53;89.33789;95601.74;;;;
2019/09/11 01:16:29;;;;;;;10.25;8.75;;;;;;;9.53;89.33789;95601.74;;;;
2019/09/11 01:17:30;;;;;;;10.25;8.75;;;;;;;9.53;89.33789;95601.74;;;;
2019/09/11 01:18:31;;;;;;;10.25;8.75;;;;;;;9.53;89.33789;95601.74;;;;
2019/09/11 01:19:33;;;;;;;10.25;8.75;;;;;;;9.53;89.33789;95601.74;;;;
2019/09/11 01:20:34;;;;;;;11.9;10.5;;;;;;;9.59;89.49023;95608.4;;;;
2019/09/11 01:21:35;;;;;;;11.9;10.5;;;;;;;9.59;89.49023;95608.4;;;;
2019/09/11 01:22:37;;;;;;;11.9;10.5;;;;;;;9.59;89.49023;95608.4;;;;
2019/09/11 01:23:38;;;;;;;11.9;10.5;;;;;;;9.59;89.49023;95608.4;;;;
2019/09/11 01:24:39;;;;;;;11.9;10.5;;;;;;;9.59;89.49023;95608.4;;;;
2019/09/11 01:25:41;;;;;;;11.9;10.5;;;;;;;9.59;89.49023;95608.4;;;;
2019/09/11 01:26:42;;;;;;;11.9;10.5;;;;;;;9.59;89.49023;95608.4;;;;
2019/09/11 01:27:43;;;;;;;11.9;10.5;;;;;;;9.59;89.49023;95608.4;;;;
2019/09/11 01:28:44;;;;;;;11.9;10.5;;;;;;;9.59;89.49023;95608.4;;;;
2019/09/11 01:29:46;;;;;;;11.9;10.5;;;;;;;9.59;89.49023;95608.4;;;;
2019/09/11 01:30:47;;;;;;;12.1;10.6;;;;;;;9.69;89.92383;95600.24;;;;
2019/09/11 01:31:48;;;;;;;12.1;10.6;;;;;;;9.69;89.92383;95600.24;;;;
2019/09/11 01:32:50;;;;;;;12.1;10.6;;;;;;;9.69;89.92383;95600.24;;;;
2019/09/11 01:33:51;;;;;;;12.1;10.6;;;;;;;9.69;89.92383;95600.24;;;;
2019/09/11 01:34:52;;;;;;;12.1;10.6;;;;;;;9.69;89.92383;95600.24;;;;
2019/09/11 01:35:53;;;;;;;12.1;10.6;;;;;;;9.69;89.92383;95600.24;;;;
2019/09/11 01:36:57;;;;;;;12.1;10.6;;;;;;;9.69;89.92383;95600.24;;;;
2019/09/11 01:37:58;;;;;;;12.1;10.6;;;;;;;9.69;89.92383;95600.24;;;;
2019/09/11 01:38:59;;;;;;;12.1;10.6;;;;;;;9.69;89.92383;95600.24;;;;
2019/09/11 01:40:01;;;;;;;12.1;10.6;;;;;;;9.69;89.92383;95600.24;;;;
2019/09/11 01:41:03;;;;;;;12.1;10.6;;;;;;;9.69;89.92383;95600.24;;;;
2019/09/11 01:42:04;;;;;;;13.25;11.25;;;;;;;9.7;90.16113;95592.86;;;;
2019/09/11 01:43:05;;;;;;;13.25;11.25;;;;;;;9.7;90.16113;95592.86;;;;
2019/09/11 01:44:07;;;;;;;13.25;11.25;;;;;;;9.7;90.16113;95592.86;;;;
2019/09/11 01:45:08;;;;;;;13.25;11.25;;;;;;;9.7;90.16113;95592.86;;;;
2019/09/11 01:46:11;;;;;;;13.25;11.25;;;;;;;9.7;90.16113;95592.86;;;;
2019/09/11 01:47:13;;;;;;;13.25;11.25;;;;;;;9.7;90.16113;95592.86;;;;
2019/09/11 01:48:14;;;;;;;13.25;11.25;;;;;;;9.7;90.16113;95592.86;;;;
2019/09/11 01:49:16;;;;;;;13.25;11.25;;;;;;;9.7;90.16113;95592.86;;;;
2019/09/11 01:50:17;;;;;;;13.25;11.25;;;;;;;9.7;90.16113;95592.86;;;;
2019/09/11 01:51:19;;;;;;;13.25;11.25;;;;;;;9.7;90.16113;95592.86;;;;
2019/09/11 01:52:20;;;;;;;12.2;10.6;;;;;;;9.79;90.52832;95593.38;;;;
2019/09/11 01:53:21;;;;;;;12.2;10.6;;;;;;;9.79;90.52832;95593.38;;;;
2019/09/11 01:54:22;;;;;;;12.2;10.6;;;;;;;9.79;90.52832;95593.38;;;;
2019/09/11 01:55:24;;;;;;;12.2;10.6;;;;;;;9.79;90.52832;95593.38;;;;
2019/09/11 01:56:25;;;;;;;12.2;10.6;;;;;;;9.79;90.52832;95593.38;;;;
2019/09/11 01:57:27;;;;;;;12.2;10.6;;;;;;;9.79;90.52832;95593.38;;;;
2019/09/11 01:58:28;;;;;;;12.2;10.6;;;;;;;9.79;90.52832;95593.38;;;;
2019/09/11 01:59:29;;;;;;;12.2;10.6;;;;;;;9.79;90.52832;95593.38;;;;
2019/09/11 02:00:30;;;;;;;12.2;10.6;;;;;;;9.79;90.52832;95593.38;;;;
2019/09/11 02:01:33;;;;;;;12.2;10.6;;;;;;;9.79;90.52832;95593.38;;;;
2019/09/11 02:02:34;;;;;;;11;9.8;;;;;;;9.81;90.83105;95593.98;;;;
2019/09/11 02:03:35;;;;;;;11;9.8;;;;;;;9.81;90.83105;95593.98;;;;
2019/09/11 02:04:36;;;;;;;11;9.8;;;;;;;9.81;90.83105;95593.98;;;;
2019/09/11 02:05:37;;;;;;;11;9.8;;;;;;;9.81;90.83105;95593.98;;;;
2019/09/11 02:06:39;;;;;;;11;9.8;;;;;;;9.81;90.83105;95593.98;;;;
2019/09/11 02:07:40;;;;;;;11;9.8;;;;;;;9.81;90.83105;95593.98;;;;
2019/09/11 02:08:41;;;;;;;11;9.8;;;;;;;9.81;90.83105;95593.98;;;;
2019/09/11 02:09:43;;;;;;;11;9.8;;;;;;;9.81;90.83105;95593.98;;;;
2019/09/11 02:10:44;;;;;;;11;9.8;;;;;;;9.81;90.83105;95593.98;;;;
2019/09/11 02:11:45;;;;;;;11;9.8;;;;;;;9.81;90.83105;95593.98;;;;
2019/09/11 02:12:47;;;;;;;11;9.8;;;;;;;9.81;90.83105;95593.98;;;;
2019/09/11 02:13:48;;;;;;;13;10.7;;;;;;;9.88;91.1123;95595.98;;;;
2019/09/11 02:14:49;;;;;;;13;10.7;;;;;;;9.88;91.1123;95595.98;;;;
2019/09/11 02:15:51;;;;;;;13;10.7;;;;;;;9.88;91.1123;95595.98;;;;
2019/09/11 02:16:53;;;;;;;13;10.7;;;;;;;9.88;91.1123;95595.98;;;;
2019/09/11 02:17:54;;;;;;;13;10.7;;;;;;;9.88;91.1123;95595.98;;;;
2019/09/11 02:18:55;;;;;;;13;10.7;;;;;;;9.88;91.1123;95595.98;;;;
2019/09/11 02:19:56;;;;;;;13;10.7;;;;;;;9.88;91.1123;95595.98;;;;
2019/09/11 02:20:58;;;;;;;13;10.7;;;;;;;9.88;91.1123;95595.98;;;;
2019/09/11 02:21:59;;;;;;;13;10.7;;;;;;;9.88;91.1123;95595.98;;;;
2019/09/11 02:23:00;;;;;;;13;10.7;;;;;;;9.88;91.1123;95595.98;;;;
2019/09/11 02:24:02;;;;;;;12.65;11.35;;;;;;;9.87;91.29102;95595.28;;;;
2019/09/11 02:25:03;;;;;;;12.65;11.35;;;;;;;9.87;91.29102;95595.28;;;;
2019/09/11 02:26:04;;;;;;;12.65;11.35;;;;;;;9.87;91.29102;95595.28;;;;
2019/09/11 02:27:06;;;;;;;12.65;11.35;;;;;;;9.87;91.29102;95595.28;;;;
2019/09/11 02:28:07;;;;;;;12.65;11.35;;;;;;;9.87;91.29102;95595.28;;;;
2019/09/11 02:29:08;;;;;;;12.65;11.35;;;;;;;9.87;91.29102;95595.28;;;;
2019/09/11 02:30:09;;;;;;;12.65;11.35;;;;;;;9.87;91.29102;95595.28;;;;
2019/09/11 02:31:11;;;;;;;12.65;11.35;;;;;;;9.87;91.29102;95595.28;;;;
2019/09/11 02:32:12;;;;;;;12.65;11.35;;;;;;;9.87;91.29102;95595.28;;;;
2019/09/11 02:33:14;;;;;;;12.65;11.35;;;;;;;9.87;91.29102;95595.28;;;;
2019/09/11 02:34:16;;;;;;;12.65;11.35;;;;;;;9.87;91.29102;95595.28;;;;
2019/09/11 02:35:17;;;;;;;14.1;11.1;;;;;;;9.92;91.66309;95610.27;;;;
2019/09/11 02:36:19;;;;;;;14.1;11.1;;;;;;;9.92;91.66309;95610.27;;;;
2019/09/11 02:37:20;;;;;;;14.1;11.1;;;;;;;9.92;91.66309;95610.27;;;;
2019/09/11 02:38:21;;;;;;;14.1;11.1;;;;;;;9.92;91.66309;95610.27;;;;
2019/09/11 02:39:22;;;;;;;14.1;11.1;;;;;;;9.92;91.66309;95610.27;;;;
2019/09/11 02:40:23;;;;;;;14.1;11.1;;;;;;;9.92;91.66309;95610.27;;;;
2019/09/11 02:41:26;;;;;;;14.1;11.1;;;;;;;9.92;91.66309;95610.27;;;;
2019/09/11 02:42:27;;;;;;;14.1;11.1;;;;;;;9.92;91.66309;95610.27;;;;
2019/09/11 02:43:29;;;;;;;14.1;11.1;;;;;;;9.92;91.66309;95610.27;;;;
2019/09/11 02:44:30;;;;;;;14.1;11.1;;;;;;;9.92;91.66309;95610.27;;;;
2019/09/11 02:45:31;;;;;;;13.5;12.1;;;;;;;9.92;91.93945;95604.88;;;;
2019/09/11 02:46:35;;;;;;;13.5;12.1;;;;;;;9.92;91.93945;95604.88;;;;
2019/09/11 02:47:36;;;;;;;13.5;12.1;;;;;;;9.92;91.93945;95604.88;;;;
2019/09/11 02:48:37;;;;;;;13.5;12.1;;;;;;;9.92;91.93945;95604.88;;;;
2019/09/11 02:49:39;;;;;;;13.5;12.1;;;;;;;9.92;91.93945;95604.88;;;;
2019/09/11 02:50:40;;;;;;;13.5;12.1;;;;;;;9.92;91.93945;95604.88;;;;
2019/09/11 02:51:41;;;;;;;13.5;12.1;;;;;;;9.92;91.93945;95604.88;;;;
2019/09/11 02:52:43;;;;;;;13.5;12.1;;;;;;;9.92;91.93945;95604.88;;;;
2019/09/11 02:53:44;;;;;;;13.5;12.1;;;;;;;9.92;91.93945;95604.88;;;;
2019/09/11 02:54:45;;;;;;;13.5;12.1;;;;;;;9.92;91.93945;95604.88;;;;
2019/09/11 02:55:46;;;;;;;15;11.45;;;;;;;9.98;92.30176;95598.17;;;;
2019/09/11 02:56:47;;;;;;;15;11.45;;;;;;;9.98;92.30176;95598.17;;;;
2019/09/11 02:57:48;;;;;;;15;11.45;;;;;;;9.98;92.30176;95598.17;;;;
2019/09/11 02:58:49;;;;;;;15;11.45;;;;;;;9.98;92.30176;95598.17;;;;
2019/09/11 02:59:51;;;;;;;15;11.45;;;;;;;9.98;92.30176;95598.17;;;;
2019/09/11 03:00:52;;;;;;;15;11.45;;;;;;;9.98;92.30176;95598.17;;;;
2019/09/11 03:01:53;;;;;;;15;11.45;;;;;;;9.98;92.30176;95598.17;;;;
2019/09/11 03:02:54;;;;;;;15;11.45;;;;;;;9.98;92.30176;95598.17;;;;
2019/09/11 03:03:55;;;;;;;15;11.45;;;;;;;9.98;92.30176;95598.17;;;;
2019/09/11 03:04:56;;;;;;;15;11.45;;;;;;;9.98;92.30176;95598.17;;;;
2019/09/11 03:05:58;;;;;;;15;11.45;;;;;;;9.98;92.30176;95598.17;;;;
2019/09/11 03:06:59;;;;;;;17.7;13.05;;;;;;;9.97;92.59766;95594.75;;;;
2019/09/11 03:08:00;;;;;;;17.7;13.05;;;;;;;9.97;92.59766;95594.75;;;;
2019/09/11 03:09:01;;;;;;;17.7;13.05;;;;;;;9.97;92.59766;95594.75;;;;
2019/09/11 03:10:04;;;;;;;17.7;13.05;;;;;;;9.97;92.59766;95594.75;;;;
2019/09/11 03:11:06;;;;;;;17.7;13.05;;;;;;;9.97;92.59766;95594.75;;;;
2019/09/11 03:12:07;;;;;;;17.7;13.05;;;;;;;9.97;92.59766;95594.75;;;;
2019/09/11 03:13:08;;;;;;;17.7;13.05;;;;;;;9.97;92.59766;95594.75;;;;
2019/09/11 03:14:09;;;;;;;17.7;13.05;;;;;;;9.97;92.59766;95594.75;;;;
2019/09/11 03:15:10;;;;;;;17.7;13.05;;;;;;;9.97;92.59766;95594.75;;;;
2019/09/11 03:16:12;;;;;;;17.7;13.05;;;;;;;9.97;92.59766;95594.75;;;;
2019/09/11 03:17:13;;;;;;;15.6;12.6;;;;;;;10;92.9668;95599.58;;;;
2019/09/11 03:18:14;;;;;;;15.6;12.6;;;;;;;10;92.9668;95599.58;;;;
2019/09/11 03:19:16;;;;;;;15.6;12.6;;;;;;;10;92.9668;95599.58;;;;
2019/09/11 03:20:17;;;;;;;15.6;12.6;;;;;;;10;92.9668;95599.58;;;;
2019/09/11 03:21:20;;;;;;;15.6;12.6;;;;;;;10;92.9668;95599.58;;;;
2019/09/11 03:22:21;;;;;;;15.6;12.6;;;;;;;10;92.9668;95599.58;;;;
2019/09/11 03:23:23;;;;;;;15.6;12.6;;;;;;;10;92.9668;95599.58;;;;
2019/09/11 03:24:24;;;;;;;15.6;12.6;;;;;;;10;92.9668;95599.58;;;;
2019/09/11 03:25:25;;;;;;;15.6;12.6;;;;;;;10;92.9668;95599.58;;;;
2019/09/11 03:26:29;;;;;;;15.6;12.6;;;;;;;10;92.9668;95599.58;;;;
2019/09/11 03:27:30;;;;;;;11.85;10.45;;;;;;;10.04;93.19531;95617.08;;;;
2019/09/11 03:28:32;;;;;;;11.85;10.45;;;;;;;10.04;93.19531;95617.08;;;;
2019/09/11 03:29:33;;;;;;;11.85;10.45;;;;;;;10.04;93.19531;95617.08;;;;
2019/09/11 03:30:34;;;;;;;11.85;10.45;;;;;;;10.04;93.19531;95617.08;;;;
2019/09/11 03:31:37;;;;;;;11.85;10.45;;;;;;;10.04;93.19531;95617.08;;;;
2019/09/11 03:32:38;;;;;;;11.85;10.45;;;;;;;10.04;93.19531;95617.08;;;;
2019/09/11 03:33:39;;;;;;;11.85;10.45;;;;;;;10.04;93.19531;95617.08;;;;
2019/09/11 03:34:41;;;;;;;11.85;10.45;;;;;;;10.04;93.19531;95617.08;;;;
2019/09/11 03:35:42;;;;;;;11.85;10.45;;;;;;;10.04;93.19531;95617.08;;;;
2019/09/11 03:36:43;;;;;;;11.85;10.45;;;;;;;10.04;93.19531;95617.08;;;;
2019/09/11 03:37:45;;;;;;;11.85;10.45;;;;;;;10.04;93.19531;95617.08;;;;
2019/09/11 03:38:46;;;;;;;12.2;10.9;;;;;;;10.11;93.45605;95634.45;;;;
2019/09/11 03:39:47;;;;;;;12.2;10.9;;;;;;;10.11;93.45605;95634.45;;;;
2019/09/11 03:40:48;;;;;;;12.2;10.9;;;;;;;10.11;93.45605;95634.45;;;;
2019/09/11 03:41:49;;;;;;;12.2;10.9;;;;;;;10.11;93.45605;95634.45;;;;
2019/09/11 03:42:50;;;;;;;12.2;10.9;;;;;;;10.11;93.45605;95634.45;;;;
2019/09/11 03:43:52;;;;;;;12.2;10.9;;;;;;;10.11;93.45605;95634.45;;;;
2019/09/11 03:44:53;;;;;;;12.2;10.9;;;;;;;10.11;93.45605;95634.45;;;;
2019/09/11 03:45:54;;;;;;;12.2;10.9;;;;;;;10.11;93.45605;95634.45;;;;
2019/09/11 03:46:55;;;;;;;12.2;10.9;;;;;;;10.11;93.45605;95634.45;;;;
2019/09/11 03:47:56;;;;;;;12.2;10.9;;;;;;;10.11;93.45605;95634.45;;;;
2019/09/11 03:48:57;;;;;;;16.75;13.95;;;;;;;10.12;93.62793;95631.24;;;;
2019/09/11 03:49:59;;;;;;;16.75;13.95;;;;;;;10.12;93.62793;95631.24;;;;
2019/09/11 03:51:00;;;;;;;16.75;13.95;;;;;;;10.12;93.62793;95631.24;;;;
2019/09/11 03:52:01;;;;;;;16.75;13.95;;;;;;;10.12;93.62793;95631.24;;;;
2019/09/11 03:53:02;;;;;;;16.75;13.95;;;;;;;10.12;93.62793;95631.24;;;;
2019/09/11 03:54:04;;;;;;;16.75;13.95;;;;;;;10.12;93.62793;95631.24;;;;
2019/09/11 03:55:05;;;;;;;16.75;13.95;;;;;;;10.12;93.62793;95631.24;;;;
2019/09/11 03:56:07;;;;;;;16.75;13.95;;;;;;;10.12;93.62793;95631.24;;;;
2019/09/11 03:57:08;;;;;;;16.75;13.95;;;;;;;10.12;93.62793;95631.24;;;;
2019/09/11 03:58:09;;;;;;;16.75;13.95;;;;;;;10.12;93.62793;95631.24;;;;
2019/09/11 03:59:11;;;;;;;15.8;13.7;;;;;;;10.19;93.94238;95661.58;;;;
2019/09/11 04:00:12;;;;;;;15.8;13.7;;;;;;;10.19;93.94238;95661.58;;;;
2019/09/11 04:01:14;;;;;;;15.8;13.7;;;;;;;10.19;93.94238;95661.58;;;;
2019/09/11 04:02:16;;;;;;;15.8;13.7;;;;;;;10.19;93.94238;95661.58;;;;
2019/09/11 04:03:17;;;;;;;15.8;13.7;;;;;;;10.19;93.94238;95661.58;;;;
2019/09/11 04:04:18;;;;;;;15.8;13.7;;;;;;;10.19;93.94238;95661.58;;;;
2019/09/11 04:05:19;;;;;;;15.8;13.7;;;;;;;10.19;93.94238;95661.58;;;;
2019/09/11 04:06:22;;;;;;;15.8;13.7;;;;;;;10.19;93.94238;95661.58;;;;
2019/09/11 04:07:23;;;;;;;15.8;13.7;;;;;;;10.19;93.94238;95661.58;;;;
2019/09/11 04:08:24;;;;;;;15.8;13.7;;;;;;;10.19;93.94238;95661.58;;;;
2019/09/11 04:09:25;;;;;;;15.8;13.7;;;;;;;10.19;93.94238;95661.58;;;;
2019/09/11 04:10:26;;;;;;;14.7;12.95;;;;;;;10.19;94.18652;95674.24;;;;
2019/09/11 04:11:28;;;;;;;14.7;12.95;;;;;;;10.19;94.18652;95674.24;;;;
2019/09/11 04:12:29;;;;;;;14.7;12.95;;;;;;;10.19;94.18652;95674.24;;;;
2019/09/11 04:13:31;;;;;;;14.7;12.95;;;;;;;10.19;94.18652;95674.24;;;;
2019/09/11 04:14:32;;;;;;;14.7;12.95;;;;;;;10.19;94.18652;95674.24;;;;
2019/09/11 04:15:33;;;;;;;14.7;12.95;;;;;;;10.19;94.18652;95674.24;;;;
2019/09/11 04:16:34;;;;;;;14.7;12.95;;;;;;;10.19;94.18652;95674.24;;;;
2019/09/11 04:17:35;;;;;;;14.7;12.95;;;;;;;10.19;94.18652;95674.24;;;;
2019/09/11 04:18:37;;;;;;;14.7;12.95;;;;;;;10.19;94.18652;95674.24;;;;
2019/09/11 04:19:38;;;;;;;14.7;12.95;;;;;;;10.19;94.18652;95674.24;;;;
2019/09/11 04:20:39;;;;;;;17.8;13.05;;;;;;;10.23;94.49219;95693.41;;;;
2019/09/11 04:21:40;;;;;;;17.8;13.05;;;;;;;10.23;94.49219;95693.41;;;;
2019/09/11 04:22:41;;;;;;;17.8;13.05;;;;;;;10.23;94.49219;95693.41;;;;
2019/09/11 04:23:43;;;;;;;17.8;13.05;;;;;;;10.23;94.49219;95693.41;;;;
2019/09/11 04:24:44;;;;;;;17.8;13.05;;;;;;;10.23;94.49219;95693.41;;;;
2019/09/11 04:25:45;;;;;;;17.8;13.05;;;;;;;10.23;94.49219;95693.41;;;;
2019/09/11 04:26:46;;;;;;;17.8;13.05;;;;;;;10.23;94.49219;95693.41;;;;
2019/09/11 04:27:47;;;;;;;17.8;13.05;;;;;;;10.23;94.49219;95693.41;;;;
2019/09/11 04:28:48;;;;;;;17.8;13.05;;;;;;;10.23;94.49219;95693.41;;;;
2019/09/11 04:29:50;;;;;;;17.8;13.05;;;;;;;10.23;94.49219;95693.41;;;;
2019/09/11 04:30:51;;;;;;;17.8;13.05;;;;;;;10.23;94.49219;95693.41;;;;
2019/09/11 04:31:52;;;;;;;17.45;13.55;;;;;;;10.19;94.75;95698;;;;
2019/09/11 04:32:53;;;;;;;17.45;13.55;;;;;;;10.19;94.75;95698;;;;
2019/09/11 04:33:54;;;;;;;17.45;13.55;;;;;;;10.19;94.75;95698;;;;
2019/09/11 04:34:55;;;;;;;17.45;13.55;;;;;;;10.19;94.75;95698;;;;
2019/09/11 04:35:56;;;;;;;17.45;13.55;;;;;;;10.19;94.75;95698;;;;
2019/09/11 04:36:58;;;;;;;17.45;13.55;;;;;;;10.19;94.75;95698;;;;
2019/09/11 04:37:59;;;;;;;17.45;13.55;;;;;;;10.19;94.75;95698;;;;
2019/09/11 04:39:00;;;;;;;17.45;13.55;;;;;;;10.19;94.75;95698;;;;
2019/09/11 04:40:01;;;;;;;17.45;13.55;;;;;;;10.19;94.75;95698;;;;
2019/09/11 04:41:04;;;;;;;17.45;13.55;;;;;;;10.19;94.75;95698;;;;
2019/09/11 04:42:05;;;;;;;18.2;14;;;;;;;10.24;95.12109;95696.39;;;;
2019/09/11 04:43:06;;;;;;;18.2;14;;;;;;;10.24;95.12109;95696.39;;;;
2019/09/11 04:44:07;;;;;;;18.2;14;;;;;;;10.24;95.12109;95696.39;;;;
2019/09/11 04:45:09;;;;;;;18.2;14;;;;;;;10.24;95.12109;95696.39;;;;
2019/09/11 04:46:11;;;;;;;18.2;14;;;;;;;10.24;95.12109;95696.39;;;;
2019/09/11 04:47:12;;;;;;;18.2;14;;;;;;;10.24;95.12109;95696.39;;;;
2019/09/11 04:48:13;;;;;;;18.2;14;;;;;;;10.24;95.12109;95696.39;;;;
2019/09/11 04:49:14;;;;;;;18.2;14;;;;;;;10.24;95.12109;95696.39;;;;
2019/09/11 04:50:15;;;;;;;18.2;14;;;;;;;10.24;95.12109;95696.39;;;;
2019/09/11 04:51:19;;;;;;;18.2;14;;;;;;;10.24;95.12109;95696.39;;;;
2019/09/11 04:52:20;;;;;;;16.7;14;;;;;;;10.27;95.21191;95716.17;;;;
2019/09/11 04:53:21;;;;;;;16.7;14;;;;;;;10.27;95.21191;95716.17;;;;
2019/09/11 04:54:22;;;;;;;16.7;14;;;;;;;10.27;95.21191;95716.17;;;;
2019/09/11 04:55:23;;;;;;;16.7;14;;;;;;;10.27;95.21191;95716.17;;;;
2019/09/11 04:56:26;;;;;;;16.7;14;;;;;;;10.27;95.21191;95716.17;;;;
2019/09/11 04:57:27;;;;;;;16.7;14;;;;;;;10.27;95.21191;95716.17;;;;
2019/09/11 04:58:28;;;;;;;16.7;14;;;;;;;10.27;95.21191;95716.17;;;;
2019/09/11 04:59:29;;;;;;;16.7;14;;;;;;;10.27;95.21191;95716.17;;;;
2019/09/11 05:00:30;;;;;;;16.7;14;;;;;;;10.27;95.21191;95716.17;;;;
2019/09/11 05:01:32;;;;;;;16.7;14;;;;;;;10.27;95.21191;95716.17;;;;
2019/09/11 05:02:33;;;;;;;16.7;14;;;;;;;10.27;95.21191;95716.17;;;;
2019/09/11 05:03:34;;;;;;;19.35;15.2;;;;;;;10.37;95.54297;95730.92;;;;
2019/09/11 05:04:36;;;;;;;19.35;15.2;;;;;;;10.37;95.54297;95730.92;;;;
2019/09/11 05:05:37;;;;;;;19.35;15.2;;;;;;;10.37;95.54297;95730.92;;;;
2019/09/11 05:06:38;;;;;;;19.35;15.2;;;;;;;10.37;95.54297;95730.92;;;;
2019/09/11 05:07:39;;;;;;;19.35;15.2;;;;;;;10.37;95.54297;95730.92;;;;
2019/09/11 05:08:40;;;;;;;19.35;15.2;;;;;;;10.37;95.54297;95730.92;;;;
2019/09/11 05:09:41;;;;;;;19.35;15.2;;;;;;;10.37;95.54297;95730.92;;;;
2019/09/11 05:10:42;;;;;;;19.35;15.2;;;;;;;10.37;95.54297;95730.92;;;;
2019/09/11 05:11:45;;;;;;;19.35;15.2;;;;;;;10.37;95.54297;95730.92;;;;
2019/09/11 05:12:46;;;;;;;19.35;15.2;;;;;;;10.37;95.54297;95730.92;;;;
2019/09/11 05:13:47;;;;;;;18.85;15.25;;;;;;;10.42;95.80859;95739.59;;;;
2019/09/11 05:14:48;;;;;;;18.85;15.25;;;;;;;10.42;95.80859;95739.59;;;;
2019/09/11 05:15:49;;;;;;;18.85;15.25;;;;;;;10.42;95.80859;95739.59;;;;
2019/09/11 05:16:51;;;;;;;18.85;15.25;;;;;;;10.42;95.80859;95739.59;;;;
2019/09/11 05:17:52;;;;;;;18.85;15.25;;;;;;;10.42;95.80859;95739.59;;;;
2019/09/11 05:18:53;;;;;;;18.85;15.25;;;;;;;10.42;95.80859;95739.59;;;;
2019/09/11 05:19:54;;;;;;;18.85;15.25;;;;;;;10.42;95.80859;95739.59;;;;
2019/09/11 05:20:55;;;;;;;18.85;15.25;;;;;;;10.42;95.80859;95739.59;;;;
2019/09/11 05:21:56;;;;;;;18.85;15.25;;;;;;;10.42;95.80859;95739.59;;;;
2019/09/11 05:22:57;;;;;;;18.85;15.25;;;;;;;10.42;95.80859;95739.59;;;;
2019/09/11 05:23:59;;;;;;;24.15;18.35;;;;;;;10.6;95.96484;95737.42;;;;
2019/09/11 05:25:00;;;;;;;24.15;18.35;;;;;;;10.6;95.96484;95737.42;;;;
2019/09/11 05:26:01;;;;;;;24.15;18.35;;;;;;;10.6;95.96484;95737.42;;;;
2019/09/11 05:27:02;;;;;;;24.15;18.35;;;;;;;10.6;95.96484;95737.42;;;;
2019/09/11 05:28:04;;;;;;;24.15;18.35;;;;;;;10.6;95.96484;95737.42;;;;
2019/09/11 05:29:05;;;;;;;24.15;18.35;;;;;;;10.6;95.96484;95737.42;;;;
2019/09/11 05:30:06;;;;;;;24.15;18.35;;;;;;;10.6;95.96484;95737.42;;;;
2019/09/11 05:31:08;;;;;;;24.15;18.35;;;;;;;10.6;95.96484;95737.42;;;;
2019/09/11 05:32:09;;;;;;;24.15;18.35;;;;;;;10.6;95.96484;95737.42;;;;
2019/09/11 05:33:11;;;;;;;24.15;18.35;;;;;;;10.6;95.96484;95737.42;;;;
2019/09/11 05:34:12;;;;;;;24.15;18.35;;;;;;;10.6;95.96484;95737.42;;;;
2019/09/11 05:35:13;;;;;;;21.25;17.5;;;;;;;10.73;96.04688;95748.49;;;;
2019/09/11 05:36:15;;;;;;;21.25;17.5;;;;;;;10.73;96.04688;95748.49;;;;
2019/09/11 05:37:17;;;;;;;21.25;17.5;;;;;;;10.73;96.04688;95748.49;;;;
2019/09/11 05:38:18;;;;;;;21.25;17.5;;;;;;;10.73;96.04688;95748.49;;;;
2019/09/11 05:39:19;;;;;;;21.25;17.5;;;;;;;10.73;96.04688;95748.49;;;;
2019/09/11 05:40:20;;;;;;;21.25;17.5;;;;;;;10.73;96.04688;95748.49;;;;
2019/09/11 05:41:23;;;;;;;21.25;17.5;;;;;;;10.73;96.04688;95748.49;;;;
2019/09/11 05:42:24;;;;;;;21.25;17.5;;;;;;;10.73;96.04688;95748.49;;;;
2019/09/11 05:43:26;;;;;;;21.25;17.5;;;;;;;10.73;96.04688;95748.49;;;;
2019/09/11 05:44:27;;;;;;;21.25;17.5;;;;;;;10.73;96.04688;95748.49;;;;
2019/09/11 05:45:28;;;;;;;26.45;19;;;;;;;10.97;96.2168;95760.14;;;;
2019/09/11 05:46:32;;;;;;;26.45;19;;;;;;;10.97;96.2168;95760.14;;;;
2019/09/11 05:47:33;;;;;;;26.45;19;;;;;;;10.97;96.2168;95760.14;;;;
2019/09/11 05:48:34;;;;;;;26.45;19;;;;;;;10.97;96.2168;95760.14;;;;
2019/09/11 05:49:35;;;;;;;26.45;19;;;;;;;10.97;96.2168;95760.14;;;;